Time;durP1;ratioP1;P1;durP2;ratioP2;P2;SDS_P1;SDS_P2;PMS_P1;PMS_P2;Temp;Humidity;BMP_temperature;BMP_pressure;BME280_temperature;BME280_humidity;BME280_pressure;Samples;Min_cycle;Max_cycle;Signal;HPM_P1;HPM_P2
2023/01/23 00:01:49;;;;;;;19.83;8.60;;;2.00;1.00;;;;;;5052626;28;20850;-57
2023/01/23 00:04:15;;;;;;;16.17;8.02;;;1.90;1.00;;;;;;5052470;28;20468;-55
2023/01/23 00:06:41;;;;;;;19.42;8.10;;;1.90;1.00;;;;;;5052568;28;20414;-54
2023/01/23 00:09:07;;;;;;;18.27;8.05;;;2.10;1.00;;;;;;5052164;28;20920;-54
2023/01/23 00:11:33;;;;;;;16.47;7.63;;;1.90;1.00;;;;;;5052579;28;20413;-54
2023/01/23 00:14:00;;;;;;;17.88;8.63;;;1.80;1.00;;;;;;5051485;28;20468;-54
2023/01/23 00:16:28;;;;;;;17.30;7.78;;;1.80;1.00;;;;;;5052571;28;20381;-54
2023/01/23 00:18:54;;;;;;;19.17;8.40;;;1.90;1.00;;;;;;5051787;28;20726;-56
2023/01/23 00:21:25;;;;;;;15.43;7.68;;;2.00;1.00;;;;;;5052319;28;20464;-54
2023/01/23 00:23:53;;;;;;;18.25;7.95;;;2.00;1.00;;;;;;5052087;28;20389;-54
2023/01/23 00:26:22;;;;;;;17.08;7.90;;;2.00;1.00;;;;;;5052727;28;20895;-54
2023/01/23 00:28:49;;;;;;;16.05;7.40;;;2.10;1.00;;;;;;5052294;28;20885;-54
2023/01/23 00:31:24;;;;;;;15.05;7.97;;;2.10;1.00;;;;;;5051703;28;20413;-54
2023/01/23 00:33:53;;;;;;;21.10;8.50;;;2.10;1.00;;;;;;5051714;28;20385;-55
2023/01/23 00:36:19;;;;;;;15.18;7.50;;;2.10;1.00;;;;;;5052150;28;20461;-54
2023/01/23 00:38:44;;;;;;;16.80;8.00;;;2.10;1.00;;;;;;5052380;28;20925;-54
2023/01/23 00:41:11;;;;;;;18.03;7.83;;;1.90;99.90;;;;;;5051345;28;20389;-54
2023/01/23 00:43:37;;;;;;;16.52;7.65;;;2.00;1.00;;;;;;5051848;28;20382;-54
2023/01/23 00:46:03;;;;;;;17.10;7.43;;;2.00;99.90;;;;;;5051119;28;20393;-54
2023/01/23 00:48:28;;;;;;;16.30;7.68;;;2.10;99.90;;;;;;5051508;28;20382;-55
2023/01/23 00:50:54;;;;;;;17.50;7.40;;;2.00;99.90;;;;;;5051022;28;20409;-54
2023/01/23 00:53:20;;;;;;;17.38;7.47;;;2.10;99.90;;;;;;5052032;28;20726;-54
2023/01/23 00:55:46;;;;;;;20.52;8.20;;;2.10;99.90;;;;;;5052393;28;20377;-55
2023/01/23 00:58:11;;;;;;;13.57;6.93;;;1.20;99.90;;;;;;5051930;28;20769;-53
2023/01/23 01:00:38;;;;;;;18.63;7.77;;;2.10;99.90;;;;;;5052064;28;20378;-53
2023/01/23 01:03:05;;;;;;;16.73;7.03;;;2.10;99.90;;;;;;5051627;28;20369;-54
2023/01/23 01:05:30;;;;;;;15.60;7.25;;;2.00;99.90;;;;;;5051879;28;20417;-54
2023/01/23 01:07:56;;;;;;;15.93;7.73;;;1.90;99.90;;;;;;5051356;28;20428;-53
2023/01/23 01:10:22;;;;;;;17.50;7.85;;;1.90;99.90;;;;;;5051805;28;20402;-54
2023/01/23 01:12:48;;;;;;;18.13;7.03;;;2.50;99.90;;;;;;5050880;28;20405;-55
2023/01/23 01:15:13;;;;;;;15.18;6.65;;;1.80;99.90;;;;;;5051791;28;20869;-53
2023/01/23 01:17:39;;;;;;;17.13;8.00;;;2.10;99.90;;;;;;5051818;28;20373;-53
2023/01/23 01:20:06;;;;;;;15.83;7.47;;;1.80;99.90;;;;;;5050422;28;20389;-54
2023/01/23 01:22:32;;;;;;;17.45;7.78;;;2.00;1.00;;;;;;5050868;28;20393;-54
2023/01/23 01:24:58;;;;;;;16.50;7.40;;;2.00;99.90;;;;;;5050588;28;20401;-54
2023/01/23 01:27:24;;;;;;;18.05;7.50;;;2.00;99.90;;;;;;5051463;28;20463;-54
2023/01/23 01:29:49;;;;;;;16.13;7.57;;;2.00;99.90;;;;;;5050562;28;20872;-54
2023/01/23 01:32:15;;;;;;;18.02;7.97;;;1.90;1.00;;;;;;5051137;28;20782;-57
2023/01/23 01:34:41;;;;;;;18.30;7.90;;;1.90;1.00;;;;;;5050748;28;20834;-54
2023/01/23 01:37:06;;;;;;;20.23;8.52;;;1.90;1.00;;;;;;5050355;28;20480;-53
2023/01/23 01:39:32;;;;;;;17.20;8.07;;;2.00;1.00;;;;;;5051448;28;20424;-54
2023/01/23 01:41:57;;;;;;;18.20;8.33;;;2.10;99.90;;;;;;5049940;28;20463;-54
2023/01/23 01:44:24;;;;;;;15.77;7.78;;;2.10;99.90;;;;;;5050792;28;20365;-54
2023/01/23 01:46:49;;;;;;;18.33;8.38;;;2.10;99.90;;;;;;5050553;28;20377;-56
2023/01/23 01:49:23;;;;;;;17.25;7.57;;;2.10;99.90;;;;;;5050987;28;20382;-54
2023/01/23 01:51:58;;;;;;;18.75;7.88;;;2.10;99.90;;;;;;5050198;28;20429;-54
2023/01/23 01:54:47;;;;;;;21.88;8.93;;;2.00;99.90;;;;;;5049718;28;20393;-54
2023/01/23 01:57:20;;;;;;;17.13;7.10;;;1.90;1.00;;;;;;5050268;28;20386;-56
2023/01/23 01:59:51;;;;;;;19.15;7.65;;;2.10;1.00;;;;;;5050764;28;20404;-57
2023/01/23 02:02:24;;;;;;;17.57;7.57;;;2.10;99.90;;;;;;5050641;28;20458;-54
2023/01/23 02:04:53;;;;;;;22.90;8.27;;;2.00;99.90;;;;;;5049864;28;20751;-61
2023/01/23 02:07:37;;;;;;;18.00;7.83;;;2.10;99.90;;;;;;5050263;28;20382;-55
2023/01/23 02:10:05;;;;;;;18.88;8.18;;;2.00;1.00;;;;;;5049495;28;20467;-54
2023/01/23 02:12:33;;;;;;;17.05;7.63;;;2.10;1.00;;;;;;5050862;28;20430;-55
2023/01/23 02:15:01;;;;;;;18.02;8.23;;;2.00;99.90;;;;;;5050214;28;20393;-54
2023/01/23 02:17:27;;;;;;;17.48;7.75;;;2.10;99.90;;;;;;5050394;28;20378;-53
2023/01/23 02:20:19;;;;;;;18.90;7.87;;;2.00;99.90;;;;;;5049932;28;20381;-56
2023/01/23 02:23:11;;;;;;;17.67;8.45;;;2.10;99.90;;;;;;5049953;28;20397;-56
2023/01/23 02:25:42;;;;;;;19.25;8.40;;;2.00;99.90;;;;;;5049562;28;20515;-54
2023/01/23 02:28:09;;;;;;;19.75;8.40;;;1.90;99.90;;;;;;5049486;28;20637;-60
2023/01/23 02:30:41;;;;;;;18.48;7.90;;;2.00;1.00;;;;;;5050130;28;20902;-53
2023/01/23 02:33:20;;;;;;;19.50;8.18;;;1.90;1.00;;;;;;5049425;28;20403;-54
2023/01/23 02:35:46;;;;;;;16.10;7.80;;;2.00;1.00;;;;;;5049422;28;20814;-54
2023/01/23 02:38:16;;;;;;;17.63;7.83;;;1.90;1.00;;;;;;5049211;28;20377;-54
2023/01/23 02:40:42;;;;;;;17.80;7.45;;;1.80;1.00;;;;;;5049893;28;20386;-55
2023/01/23 02:43:20;;;;;;;20.67;8.60;;;1.90;1.00;;;;;;5049230;28;20423;-55
2023/01/23 02:45:46;;;;;;;18.08;7.55;;;1.90;1.00;;;;;;5050120;28;20381;-53
2023/01/23 02:48:11;;;;;;;17.67;7.43;;;1.90;99.90;;;;;;5049213;28;20385;-54
2023/01/23 02:50:37;;;;;;;20.02;7.90;;;1.80;1.00;;;;;;5049618;28;20483;-53
2023/01/23 02:53:04;;;;;;;17.20;7.57;;;1.90;1.00;;;;;;5047747;28;20394;-54
2023/01/23 02:55:31;;;;;;;19.10;8.32;;;1.90;99.90;;;;;;5050266;28;20937;-53
2023/01/23 03:00:14;;;;;;;18.00;8.38;;;1.90;1.00;;;;;;5049044;28;20476;-54
2023/01/23 03:00:43;;;;;;;19.13;7.77;;;1.90;99.90;;;;;;5049922;28;20743;-54
2023/01/23 03:03:09;;;;;;;15.63;8.23;;;1.90;99.90;;;;;;5049142;28;20378;-54
2023/01/23 03:05:35;;;;;;;19.37;7.43;;;1.90;1.00;;;;;;5052653;28;20477;-54
2023/01/23 03:08:00;;;;;;;17.70;7.53;;;1.90;99.90;;;;;;5052824;28;20385;-54
2023/01/23 03:10:26;;;;;;;20.87;7.70;;;1.90;1.00;;;;;;5053780;28;20911;-53
2023/01/23 03:12:51;;;;;;;16.60;6.80;;;1.80;1.00;;;;;;5053598;28;20393;-59
2023/01/23 03:15:17;;;;;;;16.50;6.88;;;1.70;1.00;;;;;;5054041;28;20410;-54
2023/01/23 03:17:43;;;;;;;17.20;6.70;;;1.90;1.00;;;;;;5053443;28;20438;-53
2023/01/23 03:20:09;;;;;;;17.98;7.78;;;2.00;1.00;;;;;;5053158;28;20619;-53
2023/01/23 03:22:35;;;;;;;18.85;7.47;;;2.00;99.90;;;;;;5053849;28;20894;-54
2023/01/23 03:25:00;;;;;;;19.40;8.73;;;1.90;99.90;;;;;;5052730;28;20596;-54
2023/01/23 03:27:26;;;;;;;19.33;7.07;;;1.90;1.00;;;;;;5053339;28;20389;-54
2023/01/23 03:32:37;;;;;;;17.15;7.40;;;2.00;1.00;;;;;;5052913;28;20377;-54
2023/01/23 03:35:04;;;;;;;20.13;8.20;;;2.00;1.00;;;;;;5052412;28;20381;-56
2023/01/23 03:37:29;;;;;;;19.33;7.47;;;2.10;1.00;;;;;;5053715;28;20393;-53
2023/01/23 03:42:39;;;;;;;15.80;7.68;;;2.20;99.90;;;;;;5052597;28;20465;-54
2023/01/23 03:45:06;;;;;;;20.23;7.55;;;2.10;99.90;;;;;;5052374;28;20472;-54
2023/01/23 03:47:32;;;;;;;17.13;7.60;;;2.10;99.90;;;;;;5052986;28;20452;-54
2023/01/23 03:49:57;;;;;;;18.05;8.00;;;2.00;99.90;;;;;;5052171;28;20417;-54
2023/01/23 03:52:23;;;;;;;16.27;7.20;;;2.00;99.90;;;;;;5052917;28;20535;-54
2023/01/23 03:54:49;;;;;;;16.63;7.38;;;2.00;99.90;;;;;;5052906;28;20392;-53
2023/01/23 03:57:15;;;;;;;18.50;7.65;;;2.90;99.90;;;;;;5052653;28;20386;-54
2023/01/23 03:59:40;;;;;;;16.43;6.70;;;2.00;99.90;;;;;;5052976;28;20424;-54
2023/01/23 04:02:06;;;;;;;19.30;8.25;;;1.90;99.90;;;;;;5052941;28;20454;-53
2023/01/23 04:04:32;;;;;;;17.15;7.57;;;1.90;99.90;;;;;;5052872;28;20385;-54
2023/01/23 04:06:58;;;;;;;16.73;7.88;;;1.90;1.00;;;;;;5052033;28;20392;-54
2023/01/23 04:09:26;;;;;;;17.50;7.53;;;2.50;1.00;;;;;;5052787;28;20369;-53
2023/01/23 04:11:53;;;;;;;15.90;7.35;;;2.00;1.00;;;;;;5052053;28;20388;-54
2023/01/23 04:14:20;;;;;;;18.27;8.27;;;2.60;1.00;;;;;;5052785;28;20377;-54
2023/01/23 04:16:45;;;;;;;20.90;8.33;;;2.00;1.00;;;;;;5051614;28;20373;-53
2023/01/23 04:19:11;;;;;;;19.90;8.23;;;2.00;1.00;;;;;;5051177;28;20503;-54
2023/01/23 04:21:36;;;;;;;18.17;7.32;;;2.00;1.00;;;;;;5052606;28;20839;-54
2023/01/23 04:24:02;;;;;;;18.97;7.97;;;2.00;1.00;;;;;;5052176;28;20431;-54
2023/01/23 04:26:28;;;;;;;19.65;7.05;;;2.80;99.90;;;;;;5052783;28;20405;-54
2023/01/23 04:28:53;;;;;;;17.17;7.43;;;2.10;99.90;;;;;;5051983;28;20730;-60
2023/01/23 04:31:19;;;;;;;19.93;7.97;;;2.10;99.90;;;;;;5051848;28;20409;-54
2023/01/23 04:33:44;;;;;;;18.95;7.30;;;2.10;99.90;;;;;;5051788;28;20385;-53
2023/01/23 04:36:10;;;;;;;21.90;8.40;;;2.00;99.90;;;;;;5050256;28;20637;-55
2023/01/23 04:38:36;;;;;;;17.00;7.13;;;2.00;99.90;;;;;;5052046;28;20385;-54
2023/01/23 04:41:02;;;;;;;17.25;7.05;;;2.80;1.00;;;;;;5049946;28;20440;-54
2023/01/23 04:43:28;;;;;;;17.23;7.40;;;2.30;99.90;;;;;;5051864;28;20381;-54
2023/01/23 04:45:55;;;;;;;18.50;7.60;;;2.20;99.90;;;;;;5051627;28;20468;-60
2023/01/23 04:48:20;;;;;;;19.90;8.23;;;2.20;99.90;;;;;;5051714;28;20382;-54
2023/01/23 04:50:47;;;;;;;21.37;7.60;;;2.20;99.90;;;;;;5051535;28;20800;-55
2023/01/23 04:53:13;;;;;;;18.33;7.75;;;2.20;99.90;;;;;;5051171;28;20442;-54
2023/01/23 04:55:39;;;;;;;16.90;7.35;;;2.20;99.90;;;;;;5051089;28;20500;-54
2023/01/23 04:58:04;;;;;;;14.43;6.77;;;2.10;99.90;;;;;;5050863;28;20461;-55
2023/01/23 05:00:30;;;;;;;15.50;7.50;;;2.10;99.90;;;;;;5051329;28;20384;-54
2023/01/23 05:02:56;;;;;;;17.73;7.90;;;2.00;99.90;;;;;;5050828;28;20384;-54
2023/01/23 05:05:23;;;;;;;17.00;7.07;;;2.10;99.90;;;;;;5051437;28;20381;-54
2023/01/23 05:07:50;;;;;;;14.77;6.80;;;2.00;99.90;;;;;;5051761;28;20470;-54
2023/01/23 05:10:16;;;;;;;19.35;8.60;;;2.00;99.90;;;;;;5051515;28;20413;-54
2023/01/23 05:12:42;;;;;;;17.00;7.63;;;2.00;99.90;;;;;;5051789;28;20403;-53
2023/01/23 05:15:08;;;;;;;18.30;7.45;;;2.80;99.90;;;;;;5050708;28;20417;-54
2023/01/23 05:17:34;;;;;;;18.60;7.90;;;2.00;99.90;;;;;;5051407;28;20707;-54
2023/01/23 05:19:59;;;;;;;19.70;7.60;;;2.00;99.90;;;;;;5050563;28;20431;-54
2023/01/23 05:22:25;;;;;;;17.60;6.97;;;2.00;99.90;;;;;;5051713;28;20400;-53
2023/01/23 05:24:51;;;;;;;19.90;8.87;;;2.10;99.90;;;;;;5051052;28;20489;-61
2023/01/23 05:27:17;;;;;;;23.25;8.48;;;2.10;99.90;;;;;;5051420;28;20378;-54
2023/01/23 05:29:42;;;;;;;18.65;8.18;;;2.10;99.90;;;;;;5051164;28;20378;-54
2023/01/23 05:32:08;;;;;;;22.83;9.00;;;2.20;99.90;;;;;;5050738;28;20456;-53
2023/01/23 05:34:35;;;;;;;18.25;8.02;;;2.00;99.90;;;;;;5050213;28;20500;-54
2023/01/23 05:37:01;;;;;;;22.52;9.20;;;2.00;99.90;;;;;;5050522;28;20460;-54
2023/01/23 05:39:27;;;;;;;24.43;8.90;;;2.00;99.90;;;;;;5050421;28;20377;-54
2023/01/23 05:41:52;;;;;;;18.15;7.95;;;1.90;99.90;;;;;;5045670;28;20391;-58
2023/01/23 05:44:18;;;;;;;20.10;8.53;;;1.90;99.90;;;;;;5051280;28;20488;-54
2023/01/23 05:46:43;;;;;;;18.57;8.23;;;1.90;99.90;;;;;;5060723;28;20739;-53
2023/01/23 05:49:09;;;;;;;20.48;8.02;;;2.00;99.90;;;;;;5053632;28;20381;-54
2023/01/23 05:51:35;;;;;;;20.33;8.33;;;1.90;99.90;;;;;;5064572;28;20401;-53
2023/01/23 05:54:01;;;;;;;22.63;8.40;;;1.90;99.90;;;;;;5058267;28;20380;-54
2023/01/23 05:56:27;;;;;;;21.27;8.63;;;1.90;99.90;;;;;;5057138;28;20746;-54
2023/01/23 05:58:53;;;;;;;20.92;8.77;;;2.00;99.90;;;;;;5052254;28;20401;-55
2023/01/23 06:01:20;;;;;;;26.35;9.52;;;1.90;99.90;;;;;;5066138;28;20478;-54
2023/01/23 06:03:46;;;;;;;21.48;8.98;;;1.90;99.90;;;;;;5060413;28;20855;-54
2023/01/23 06:06:12;;;;;;;19.77;8.03;;;2.50;99.90;;;;;;5062035;28;20387;-54
2023/01/23 06:08:37;;;;;;;17.17;7.60;;;1.90;99.90;;;;;;5056815;28;20444;-58
2023/01/23 06:11:03;;;;;;;21.33;8.20;;;1.90;99.90;;;;;;5048822;28;20427;-54
2023/01/23 06:13:29;;;;;;;18.85;7.55;;;1.90;99.90;;;;;;5051383;28;20390;-54
2023/01/23 06:15:55;;;;;;;21.40;9.00;;;1.80;99.90;;;;;;5048730;28;20408;-55
2023/01/23 06:18:21;;;;;;;19.33;7.90;;;1.80;99.90;;;;;;5049507;28;20373;-54
2023/01/23 06:20:47;;;;;;;21.13;9.03;;;1.80;99.90;;;;;;5049185;28;20374;-55
2023/01/23 06:23:12;;;;;;;19.57;9.10;;;1.80;99.90;;;;;;5048559;28;20523;-54
2023/01/23 06:25:38;;;;;;;20.92;9.38;;;1.80;99.90;;;;;;5048949;28;20408;-54
2023/01/23 06:28:04;;;;;;;22.80;9.38;;;1.80;99.90;;;;;;5048716;28;20459;-54
2023/01/23 06:30:29;;;;;;;21.80;9.00;;;2.00;99.90;;;;;;5049765;28;20870;-54
2023/01/23 06:32:55;;;;;;;20.70;8.97;;;1.90;99.90;;;;;;5049244;28;20755;-55
2023/01/23 06:35:21;;;;;;;20.33;7.78;;;1.80;99.90;;;;;;5069501;28;20598;-54
2023/01/23 06:37:47;;;;;;;20.90;8.27;;;1.90;99.90;;;;;;5069665;28;20463;-55
2023/01/23 06:40:13;;;;;;;19.95;8.35;;;1.90;99.90;;;;;;5068741;28;20665;-55
2023/01/23 06:42:40;;;;;;;22.88;8.73;;;1.80;99.90;;;;;;5049546;28;20880;-54
2023/01/23 06:45:07;;;;;;;17.90;8.25;;;1.80;99.90;;;;;;5048296;28;20386;-56
2023/01/23 06:47:32;;;;;;;20.55;8.80;;;1.80;99.90;;;;;;5049584;28;20489;-54
2023/01/23 06:49:58;;;;;;;17.92;8.10;;;1.80;99.90;;;;;;5048412;28;20405;-54
2023/01/23 06:52:24;;;;;;;24.90;9.27;;;1.70;99.90;;;;;;5049357;28;20774;-56
2023/01/23 06:54:49;;;;;;;21.20;7.97;;;1.50;1.00;;;;;;5049622;28;20846;-54
2023/01/23 06:57:15;;;;;;;19.85;8.75;;;1.50;1.00;;;;;;5048387;28;20413;-54
2023/01/23 06:59:41;;;;;;;22.70;9.00;;;1.50;1.00;;;;;;5049775;28;20819;-55
2023/01/23 07:02:10;;;;;;;17.97;8.20;;;1.50;1.00;;;;;;5048759;28;20382;-54
2023/01/23 07:04:35;;;;;;;21.17;9.25;;;1.50;1.00;;;;;;5045280;28;20428;-54
2023/01/23 07:07:01;;;;;;;20.67;8.10;;;1.70;1.00;;;;;;5048664;28;20826;-56
2023/01/23 07:09:26;;;;;;;24.57;9.70;;;1.40;1.00;;;;;;5049322;28;20859;-55
2023/01/23 07:11:52;;;;;;;25.40;9.57;;;1.50;1.00;;;;;;5049487;28;20503;-55
2023/01/23 07:14:18;;;;;;;22.17;8.85;;;1.60;1.00;;;;;;5049548;28;20388;-55
2023/01/23 07:16:43;;;;;;;21.90;9.02;;;1.60;1.00;;;;;;5049560;28;20373;-55
2023/01/23 07:19:09;;;;;;;26.53;10.90;;;1.70;1.00;;;;;;5049078;28;20385;-55
2023/01/23 07:21:35;;;;;;;35.30;12.30;;;1.70;1.00;;;;;;5049596;28;20942;-55
2023/01/23 07:24:00;;;;;;;25.08;10.05;;;2.60;1.00;;;;;;5049036;28;20727;-55
2023/01/23 07:26:26;;;;;;;27.63;10.23;;;1.70;1.00;;;;;;5048999;28;20401;-55
2023/01/23 07:28:52;;;;;;;28.90;10.30;;;1.60;1.00;;;;;;5049470;28;20435;-55
2023/01/23 07:31:18;;;;;;;28.83;10.77;;;2.00;1.00;;;;;;5048505;28;20813;-55
2023/01/23 07:33:44;;;;;;;23.30;9.23;;;1.70;1.00;;;;;;5048825;28;20378;-55
2023/01/23 07:36:12;;;;;;;25.80;10.80;;;1.60;1.00;;;;;;5048703;28;20381;-55
2023/01/23 07:38:38;;;;;;;27.05;11.23;;;1.70;99.90;;;;;;5049040;28;20906;-56
2023/01/23 07:41:04;;;;;;;24.67;10.13;;;1.70;99.90;;;;;;5047870;28;20413;-55
2023/01/23 07:43:29;;;;;;;21.90;8.57;;;1.70;99.90;;;;;;5049592;28;20378;-55
2023/01/23 07:46:01;;;;;;;22.13;8.50;;;1.70;1.00;;;;;;5048619;28;20455;-62
2023/01/23 07:48:28;;;;;;;25.03;9.63;;;1.70;1.00;;;;;;5048864;28;20388;-55
2023/01/23 07:50:53;;;;;;;20.92;9.02;;;1.70;1.00;;;;;;5050862;28;20424;-55
2023/01/23 07:53:19;;;;;;;25.35;9.38;;;1.60;1.00;;;;;;5052344;28;20419;-55
2023/01/23 07:55:45;;;;;;;22.38;8.75;;;1.80;1.00;;;;;;5052436;28;20836;-55
2023/01/23 07:58:10;;;;;;;23.57;8.03;;;1.80;99.90;;;;;;5052485;28;20390;-55
2023/01/23 08:00:37;;;;;;;26.00;10.97;;;1.70;1.00;;;;;;5052880;28;20471;-55
2023/01/23 08:03:03;;;;;;;20.80;8.27;;;1.70;99.90;;;;;;5051637;28;20374;-55
2023/01/23 08:05:29;;;;;;;22.75;9.63;;;1.90;99.90;;;;;;5052100;28;20394;-56
2023/01/23 08:07:54;;;;;;;21.00;8.83;;;2.30;99.90;;;;;;5051818;28;20394;-58
2023/01/23 08:10:20;;;;;;;19.80;8.07;;;1.80;99.90;;;;;;5051460;28;20530;-55
2023/01/23 08:12:45;;;;;;;25.75;10.10;;;1.80;99.90;;;;;;5052222;28;20484;-57
2023/01/23 08:15:12;;;;;;;24.83;9.10;;;1.90;99.90;;;;;;5051767;28;20778;-55
2023/01/23 08:17:37;;;;;;;21.00;9.90;;;1.90;99.90;;;;;;5052585;28;20361;-54
2023/01/23 08:20:03;;;;;;;22.33;9.95;;;1.90;99.90;;;;;;5051672;28;20392;-55
2023/01/23 08:22:29;;;;;;;27.77;10.60;;;2.10;99.90;;;;;;5051967;28;20385;-55
2023/01/23 08:24:55;;;;;;;22.30;10.50;;;2.00;99.90;;;;;;5051686;28;20397;-60
2023/01/23 08:27:20;;;;;;;24.77;10.27;;;2.00;99.90;;;;;;5051579;28;20483;-54
2023/01/23 08:29:46;;;;;;;25.60;9.98;;;2.00;99.90;;;;;;5051505;28;20377;-54
2023/01/23 08:32:12;;;;;;;25.50;9.50;;;2.10;99.90;;;;;;5051391;28;20381;-54
2023/01/23 08:34:37;;;;;;;22.40;10.40;;;2.20;99.90;;;;;;5051978;28;20378;-55
2023/01/23 08:37:03;;;;;;;24.45;10.70;;;2.30;99.90;;;;;;5049780;28;20417;-55
2023/01/23 08:39:29;;;;;;;25.90;10.70;;;2.30;99.90;;;;;;5051781;28;20390;-55
2023/01/23 08:41:54;;;;;;;22.17;9.60;;;2.30;40.60;;;;;;5051878;28;20494;-55
2023/01/23 08:44:20;;;;;;;25.02;10.10;;;3.30;1.00;;;;;;5051011;28;20844;-55
2023/01/23 08:46:46;;;;;;;26.30;9.67;;;2.30;1.00;;;;;;5051974;28;20712;-55
2023/01/23 08:49:11;;;;;;;22.43;9.33;;;2.20;1.00;;;;;;5050908;28;20388;-54
2023/01/23 08:51:37;;;;;;;19.40;7.93;;;2.20;1.00;;;;;;5051219;28;20546;-55
2023/01/23 08:54:03;;;;;;;20.58;8.65;;;2.20;99.90;;;;;;5051056;28;20384;-55
2023/01/23 08:56:28;;;;;;;23.75;9.93;;;2.20;99.90;;;;;;5051848;28;20390;-55
2023/01/23 08:58:54;;;;;;;18.37;8.30;;;2.20;1.00;;;;;;5051304;28;20519;-54
2023/01/23 09:01:25;;;;;;;24.03;9.60;;;2.40;99.90;;;;;;5051067;28;20457;-55
2023/01/23 09:03:51;;;;;;;20.73;8.60;;;2.30;99.90;;;;;;5051205;28;20834;-55
2023/01/23 09:06:20;;;;;;;21.42;9.45;;;2.50;99.90;;;;;;5050669;28;20435;-55
2023/01/23 09:08:46;;;;;;;21.73;9.25;;;2.70;1.00;;;;;;5051491;28;20843;-53
2023/01/23 09:11:13;;;;;;;24.95;8.75;;;3.00;99.90;;;;;;5050757;28;20432;-53
2023/01/23 09:13:39;;;;;;;19.45;7.93;;;3.10;99.90;;;;;;5050755;28;20385;-53
2023/01/23 09:16:09;;;;;;;19.23;8.50;;;3.10;1.00;;;;;;5050409;28;20863;-53
2023/01/23 09:18:35;;;;;;;20.50;7.82;;;3.20;1.00;;;;;;5051381;28;20381;-53
2023/01/23 09:21:09;;;;;;;19.60;8.32;;;3.20;99.90;;;;;;5050799;28;20427;-53
2023/01/23 09:23:35;;;;;;;19.90;8.38;;;3.40;99.90;;;;;;5050683;28;20464;-55
2023/01/23 09:26:10;;;;;;;18.05;7.95;;;4.00;99.90;;;;;;5050240;28;20542;-53
2023/01/23 09:28:37;;;;;;;19.67;8.10;;;3.50;1.00;;;;;;5050924;28;20393;-57
2023/01/23 09:31:08;;;;;;;21.95;7.63;;;3.20;1.00;;;;;;5050033;28;20410;-55
2023/01/23 09:33:34;;;;;;;17.83;6.63;;;3.30;1.00;;;;;;5050481;28;20393;-55
2023/01/23 09:36:00;;;;;;;14.13;6.27;;;3.20;1.00;;;;;;5050595;28;20439;-55
2023/01/23 09:38:26;;;;;;;14.63;5.70;;;2.90;1.00;;;;;;5050749;28;20703;-55
2023/01/23 09:40:59;;;;;;;14.90;6.60;;;2.80;1.00;;;;;;5051104;28;20465;-55
2023/01/23 09:43:25;;;;;;;12.45;5.10;;;2.80;1.00;;;;;;5050583;28;20469;-55
2023/01/23 09:46:17;;;;;;;18.67;5.37;;;2.80;1.00;;;;;;5050592;28;20457;-54
2023/01/23 09:48:42;;;;;;;15.65;6.53;;;2.70;1.00;;;;;;5050593;28;20389;-54
2023/01/23 09:51:21;;;;;;;14.95;5.40;;;2.50;1.00;;;;;;5049551;28;20405;-54
2023/01/23 09:53:46;;;;;;;15.07;6.32;;;2.50;1.00;;;;;;5050244;28;20393;-55
2023/01/23 09:56:35;;;;;;;14.85;6.10;;;2.50;1.00;;;;;;5049541;28;20386;-55
2023/01/23 09:59:09;;;;;;;15.07;7.15;;;2.50;1.00;;;;;;5049803;28;20396;-60
2023/01/23 10:01:36;;;;;;;16.70;6.93;;;2.60;1.00;;;;;;5050337;28;20781;-55
2023/01/23 10:04:03;;;;;;;16.60;6.40;;;2.70;1.00;;;;;;5049525;28;20384;-55
2023/01/23 10:06:31;;;;;;;15.60;6.45;;;2.70;1.00;;;;;;5050271;28;20373;-54
2023/01/23 10:09:43;;;;;;;16.02;6.50;;;2.60;1.00;;;;;;5049787;28;20874;-60
2023/01/23 10:12:33;;;;;;;15.13;5.70;;;2.90;1.00;;;;;;5049549;28;20414;-54
2023/01/23 10:15:10;;;;;;;16.63;5.97;;;2.90;1.00;;;;;;5048942;28;20378;-55
2023/01/23 10:17:58;;;;;;;16.10;7.07;;;2.70;1.00;;;;;;5049666;28;20387;-54
2023/01/23 10:20:46;;;;;;;15.65;5.80;;;2.70;1.00;;;;;;5049508;28;20467;-55
2023/01/23 10:23:27;;;;;;;17.73;6.95;;;2.80;1.00;;;;;;5049204;28;20377;-54
2023/01/23 10:25:54;;;;;;;16.73;7.07;;;2.90;1.00;;;;;;5049730;28;20437;-54
2023/01/23 10:28:38;;;;;;;15.75;7.40;;;3.10;1.00;;;;;;5049190;28;20413;-54
2023/01/23 10:31:50;;;;;;;15.43;6.93;;;3.20;1.00;;;;;;5049401;28;20459;-54
2023/01/23 10:34:25;;;;;;;16.13;7.50;;;3.10;1.00;;;;;;5045710;28;20423;-54
2023/01/23 10:37:09;;;;;;;14.93;6.90;;;3.30;1.00;;;;;;5050159;28;20384;-55
2023/01/23 10:39:54;;;;;;;18.83;7.70;;;3.50;1.00;;;;;;5050010;28;20855;-55
2023/01/23 10:42:24;;;;;;;15.65;7.53;;;3.70;1.00;;;;;;5049057;28;20759;-53
2023/01/23 10:44:49;;;;;;;15.00;6.60;;;3.80;99.90;;;;;;5049507;28;20855;-54
2023/01/23 10:47:41;;;;;;;20.47;8.70;;;3.80;99.90;;;;;;5049517;28;20431;-55
2023/01/23 10:50:07;;;;;;;20.52;8.68;;;3.80;99.90;;;;;;5048703;28;20772;-54
2023/01/23 10:52:38;;;;;;;18.65;7.45;;;3.80;99.90;;;;;;5049562;28;20867;-54
2023/01/23 10:55:27;;;;;;;17.48;8.68;;;3.70;99.90;;;;;;5048136;28;20399;-55
2023/01/23 10:57:55;;;;;;;18.95;7.55;;;4.00;99.90;;;;;;5049240;28;20495;-54
2023/01/23 11:00:32;;;;;;;17.27;7.03;;;3.90;99.90;;;;;;5048986;28;20386;-54
2023/01/23 11:03:20;;;;;;;15.87;7.57;;;3.60;99.90;;;;;;5048459;28;20718;-56
2023/01/23 11:06:07;;;;;;;17.63;6.90;;;3.70;99.90;;;;;;5049128;28;20416;-54
2023/01/23 11:08:38;;;;;;;15.52;6.93;;;3.70;99.90;;;;;;5049776;28;20386;-55
2023/01/23 11:11:29;;;;;;;18.77;6.80;;;4.50;99.90;;;;;;5048591;28;20405;-54
2023/01/23 11:14:12;;;;;;;17.33;7.50;;;3.40;99.90;;;;;;5049937;28;20507;-57
2023/01/23 11:16:38;;;;;;;14.52;6.50;;;3.40;99.90;;;;;;5049702;28;20396;-54
2023/01/23 11:19:07;;;;;;;17.77;7.53;;;3.30;99.90;;;;;;5048739;28;20489;-54
2023/01/23 11:21:35;;;;;;;16.47;6.90;;;3.50;1.00;;;;;;5049175;28;20413;-54
2023/01/23 11:24:27;;;;;;;19.10;7.25;;;3.50;1.00;;;;;;5048714;28;20391;-55
2023/01/23 11:27:13;;;;;;;16.80;6.57;;;3.60;1.00;;;;;;5052810;28;20415;-54
2023/01/23 11:30:07;;;;;;;14.30;6.88;;;3.40;1.00;;;;;;5053367;28;20448;-55
2023/01/23 11:32:40;;;;;;;20.70;8.30;;;3.20;1.00;;;;;;5053268;28;20791;-55
2023/01/23 11:35:32;;;;;;;18.55;6.50;;;3.40;1.00;;;;;;5052066;28;20390;-54
2023/01/23 11:38:02;;;;;;;14.20;5.57;;;3.30;1.00;;;;;;5052394;28;20384;-57
2023/01/23 11:40:28;;;;;;;16.08;6.45;;;4.00;1.00;;;;;;5053001;28;20396;-56
2023/01/23 11:42:54;;;;;;;18.20;7.07;;;3.00;1.00;;;;;;5052670;28;20373;-54
2023/01/23 11:45:45;;;;;;;14.98;6.90;;;3.30;1.00;;;;;;5052239;28;20389;-54
2023/01/23 11:48:51;;;;;;;17.75;7.50;;;3.50;1.00;;;;;;5052022;28;20392;-54
2023/01/23 11:51:51;;;;;;;19.55;7.43;;;3.40;1.00;;;;;;5052049;28;20450;-54
2023/01/23 11:54:25;;;;;;;20.35;6.93;;;3.50;1.00;;;;;;5051776;28;20390;-55
2023/01/23 11:57:10;;;;;;;16.80;6.63;;;3.40;1.00;;;;;;5052961;28;20424;-55
2023/01/23 11:59:44;;;;;;;21.50;6.35;;;3.40;1.00;;;;;;5052744;28;20468;-54
2023/01/23 12:02:34;;;;;;;19.73;7.75;;;3.00;1.00;;;;;;5051790;28;20457;-56
2023/01/23 12:05:34;;;;;;;18.92;7.68;;;3.10;1.00;;;;;;5052192;28;20369;-55
2023/01/23 12:08:16;;;;;;;15.70;6.43;;;3.20;1.00;;;;;;5051909;28;20422;-61
2023/01/23 12:11:16;;;;;;;19.13;7.63;;;2.90;1.00;;;;;;5052300;28;20414;-55
2023/01/23 12:14:03;;;;;;;21.70;9.70;;;3.00;1.00;;;;;;5052081;28;20862;-54
2023/01/23 12:16:47;;;;;;;19.25;8.25;;;3.30;1.00;;;;;;5052615;28;20404;-55
2023/01/23 12:19:38;;;;;;;16.92;6.85;;;3.60;1.00;;;;;;5041017;28;20497;-54
2023/01/23 12:22:26;;;;;;;17.85;7.22;;;3.30;1.00;;;;;;5034920;28;20743;-54
2023/01/23 12:25:13;;;;;;;17.63;7.15;;;3.40;1.00;;;;;;5051686;28;20421;-55
2023/01/23 12:27:44;;;;;;;18.25;6.95;;;3.60;1.00;;;;;;5051888;28;20381;-55
2023/01/23 12:30:22;;;;;;;18.90;7.93;;;4.10;1.00;;;;;;5045330;28;20520;-55
2023/01/23 12:32:53;;;;;;;19.05;7.95;;;3.50;1.00;;;;;;5037499;28;20395;-54
2023/01/23 12:35:21;;;;;;;19.75;8.00;;;3.40;1.00;;;;;;5049943;28;21188;-56
2023/01/23 12:38:10;;;;;;;17.25;7.60;;;3.40;1.00;;;;;;5045001;28;20512;-54
2023/01/23 12:40:45;;;;;;;18.55;7.10;;;3.40;1.00;;;;;;5033149;28;20733;-54
2023/01/23 12:43:33;;;;;;;15.73;7.07;;;3.50;1.00;;;;;;5031153;28;20390;-54
2023/01/23 12:46:10;;;;;;;14.03;6.93;;;3.40;1.00;;;;;;5031879;28;20383;-60
2023/01/23 12:48:42;;;;;;;15.53;6.10;;;3.30;1.00;;;;;;5032235;28;20383;-54
2023/01/23 12:51:17;;;;;;;18.27;6.43;;;3.30;1.00;;;;;;5031130;28;20403;-54
2023/01/23 12:53:45;;;;;;;14.95;6.13;;;3.40;1.00;;;;;;5030910;28;20406;-54
2023/01/23 12:56:21;;;;;;;17.70;6.88;;;3.40;1.00;;;;;;5030467;28;20411;-55
2023/01/23 12:59:12;;;;;;;17.40;7.88;;;3.70;1.00;;;;;;5041319;28;20484;-55
2023/01/23 13:01:53;;;;;;;15.98;7.70;;;3.80;1.00;;;;;;5051875;28;20861;-55
2023/01/23 13:04:18;;;;;;;17.13;7.33;;;3.80;1.00;;;;;;5051139;28;20385;-57
2023/01/23 13:07:13;;;;;;;22.40;8.60;;;3.40;1.00;;;;;;5051338;28;20914;-55
2023/01/23 13:10:20;;;;;;;17.38;6.93;;;3.50;1.00;;;;;;5048183;28;20726;-55
2023/01/23 13:12:47;;;;;;;16.17;6.70;;;3.60;1.00;;;;;;5041306;28;20405;-57